VTCC Airport Information

Runway Information
Runway 18 Length 10171 ft width 148 ft
Elevation 1036 ft Threshold 0 ft Heading 180
Runway 36 Length 10171 ft Width 148 ft
Elevation 1007 ft Threshold 0 ft Heading 0
Airport Frequencies
Type APP Name APP Frequency 129.6 MHZ
Type ATIS Name ATIS Frequency 127.2 MHZ
Type GND Name GND Frequency 121.9 MHZ
Type TWR Name TWR Frequency 118.1 MHZ
Airport Navaids
Type NDB Name Chiang Mai Frequency 255 KHZ
Type TACAN Name Chiang Mai Frequency 116200 KHZ
Type VOR-DME Name Chiang Mai Frequency 116900 KHZ
Airport Weather Information & NOTAM
ADDS - METARS form results

(2317 UTC 20 October 2020)
Data provider http://aviationweather.gov/metar/data/
 
METAR text: VTCC 202300Z 36006KT 9999 BKN035 22/20 Q1014 NOSIG
Conditions at: VTCC (CHIANG MAI(CIV/A, TH) observed 2300 UTC 20 October 2020
Temperature: 22.0°C (72°F)
Dewpoint: 20.0°C (68°F) [RH = 88%]
Pressure (altimeter): 29.94 inches Hg (1014.0 mb)
Winds: from the N (360 degrees) at 7 MPH (6 knots; 3.1 m/s)
Visibility: 6 or more miles (10+ km)
Ceiling: 3500 feet AGL
Clouds: broken clouds at 3500 feet AGL
Weather: no significant weather observed at this time

METAR text: VTCC 202230Z 01007KT 9999 FEW018 BKN035 22/20 Q1014 NOSIG
Conditions at: VTCC (CHIANG MAI(CIV/A, TH) observed 2230 UTC 20 October 2020
Temperature: 22.0°C (72°F)
Dewpoint: 20.0°C (68°F) [RH = 88%]
Pressure (altimeter): 29.94 inches Hg (1014.0 mb)
Winds: from the N (10 degrees) at 8 MPH (7 knots; 3.6 m/s)
Visibility: 6 or more miles (10+ km)
Ceiling: 3500 feet AGL
Clouds: few clouds at 1800 feet AGL
broken clouds at 3500 feet AGL
Weather: no significant weather observed at this time

Forecast for: VTCC (CHIANG MAI(CIV/A, TH)
Text: TAF VTCC 201700Z 2018/2124 02010KT 9999 BKN035
Forecast period: 1800 UTC 20 October 2020 to 0000 UTC 22 October 2020
Forecast type: FROM: standard forecast or significant change
Winds: from the NNE (20 degrees) at 12 MPH (10 knots; 5.1 m/s)
Visibility: 6 or more miles (10+ km)
Ceiling: 3500 feet AGL
Clouds: broken clouds at 3500 feet AGL
Weather: no significant weather forecast for this period